x

South Georgian Bay (45143) Wave Buoy

4:00pm - Mon 31st Aug 2015 All times are CDT. -5 hours from GMT.

  • Sig Wave height 1.0ft
  • Peak Period 3s
  • Wind
    7mph
  • Sea Temp 69°f
  • Air Temp 67°f
  • Sea Pressure 1016.7mb
  • South Georgian Bay
  • South Georgian Bay

More Historic Weather Station data

Upgrade to MSW Pro to gain access to the past 30 days of data for over 8000 Wavebouys and Weather Stations around the globe.

Join Pro

Comparision Forecast

View Surf forecast
   
Mon 08/31 4:00pm 1ft 3s 7
mph
1016.7mb 69f 67f
3:00pm 1ft 3s 9
mph
1016.9mb 69f 68f
2:00pm 1ft 3s 11 13 mph 1016.8mb 69f 67f
1:00pm 1ft 3s 9 11 mph 1017mb 69f 67f
12:00pm 1ft 3s 9 11 mph 1017.1mb 69f 67f
11:00am 1ft 3s 9 11 mph 1017.2mb 69f 67f
10:00am 1.3ft 3s 9 11 mph 1017.1mb 68f 68f
9:00am 1.3ft 3s 9 11 mph 1016.6mb 68f 68f
8:00am 1.3ft 3s 11 13 mph 1016.2mb 68f 68f
7:00am 1.3ft 3s 13 16 mph 1015.7mb 68f 67f
6:00am 1.6ft 3s 13 16 mph 1015.5mb 68f 68f
5:00am 1.3ft 3s 13 16 mph 1015.1mb 68f 68f
4:00am 1.3ft 3s 13 16 mph 1014.7mb 68f 68f
3:00am 1.3ft 2s 13 18 mph 1014.8mb 68f 68f
2:00am 1ft 2s 11 13 mph 1014.9mb 69f 68f
1:00am 0.7ft 2s 9
mph
1015mb 69f 68f
12:00am 0.7ft 2s 9 11 mph 1015.4mb 69f 68f
Sun 08/30 11:00pm 0.3ft 2s 9 11 mph 1015.3mb 69f 68f
10:00pm 0.3ft 2s 9
mph
1015.4mb 69f 69f
9:00pm 0.3ft 2s 9
mph
1015.5mb 69f 69f
8:00pm 0.3ft 2s 7
mph
1015.8mb 69f 69f
7:00pm 0.3ft 2s 7 9 mph 1015.3mb 70f 69f
6:00pm 0.3ft 2s 4 7 mph 1015.5mb 71f 69f
5:00pm 0.3ft 2s 4
mph
1015.8mb 71f 70f
4:00pm 0.3ft 2s 4
mph
1016.1mb 72f 70f
3:00pm 0.3ft 2s 4
mph
1016.5mb 72f 69f
2:00pm 0.3ft 2s 2 4 mph 1017mb 72f 70f
1:00pm 0.3ft 2s 2 4 mph 1017.6mb 73f 69f
12:00pm 0.3ft 2s 2
mph
1017.9mb 72f 68f
11:00am 0.3ft 2s 2 4 mph 1018.5mb 70f 67f
10:00am 0.3ft 2s 2 4 mph 1018.9mb 69f 66f
9:00am 0.7ft 2s 4
mph
1019mb 68f 66f
8:00am 0.3ft 2s 7
mph
1018.7mb 68f 66f
7:00am 0.3ft 2s 9
mph
1018.6mb 68f 66f
6:00am 0.3ft 2s 7
mph
1018.4mb 68f 66f
5:00am 0.3ft 2s 7 9 mph 1018mb 68f 66f
4:00am 0.7ft 2s 7
mph
1017.4mb 68f 67f
3:00am 0.7ft 2s 7 9 mph 1017.3mb 68f 67f
2:00am 0.3ft 2s 7 9 mph 1017.4mb 68f 67f
1:00am 0.3ft 2s 7 9 mph 1017.5mb 68f 67f
12:00am 0.3ft 2s 7
mph
1018mb 68f 67f
Sat 08/29 11:00pm 0.3ft 2s 4
mph
1018.5mb 68f 67f
10:00pm 0.7ft 2s 4 7 mph 1018.7mb 68f 67f
9:00pm 0.7ft 2s 4 7 mph 1018.7mb 68f 67f
8:00pm 0.7ft 2s 4
mph
1018.8mb 68f 67f
7:00pm 1ft 2s 7 9 mph 1018.5mb 68f 67f
6:00pm 1ft 2s 9 11 mph 1018.6mb 68f 67f
5:00pm 1ft 2s 11 13 mph 1018.7mb 68f 66f
4:00pm 1ft 2s 9
mph
1019mb 67f 66f
3:00pm 1ft 3s 7 9 mph 1019.1mb 67f 66f
2:00pm 1.3ft 3s 9
mph
1019.7mb 67f 66f
1:00pm 1.3ft 3s 9 11 mph 1020mb 67f 66f
12:00pm 1.3ft 3s 7
mph
1019.9mb 67f 65f
11:00am 1.3ft 2s 11 13 mph 1020.4mb 67f 65f
10:00am 1.3ft 3s 13 16 mph 1020.1mb 67f 65f
9:00am 1.6ft 3s 11 13 mph 1020mb 67f 65f
8:00am 2ft 3s 16 18 mph 1019.6mb 67f 65f
7:00am 2ft 3s 18 20 mph 1019.7mb 67f 65f
6:00am 2ft 4s 18 20 mph 1019.4mb 67f 65f
5:00am 2ft 4s 16 18 mph 1019.3mb 67f 65f
4:00am 2ft 3s 16 20 mph 1018.9mb 67f 65f
3:00am 1.6ft 3s 18 20 mph 1019mb 67f 65f
2:00am 1.3ft 3s 16 20 mph 1019.2mb 67f 65f
1:00am 1ft 2s 13 16 mph 1019.4mb 67f 66f
12:00am 1ft 3s 11 13 mph 1020mb 67f 65f
Fri 08/28 11:00pm 0.7ft 2s 11 13 mph 1020.2mb 67f 67f
10:00pm 0.7ft 2s 11 13 mph 1020.2mb 67f 66f
9:00pm 0.7ft 2s 7
mph
1020.4mb 67f 66f
8:00pm 1ft 3s 7 9 mph 1020.4mb 67f 66f
7:00pm 1ft 3s 9
mph
1020.3mb 68f 66f
6:00pm 1.3ft 3s 9 11 mph 1020.3mb 68f 67f
5:00pm 1.3ft 3s 9 11 mph 1020.5mb 68f 67f
4:00pm 1.3ft 3s 11 13 mph 1020.5mb 68f 68f
3:00pm 1.3ft 3s 11 13 mph 1020.3mb 68f 67f
2:00pm 1.6ft 3s 11
mph
1020.7mb 68f 67f
1:00pm 1.6ft 3s 13
mph
1021.2mb 68f 67f
12:00pm 1.6ft 3s 13 16 mph 1021.7mb 68f 67f
11:00am 1.3ft 3s 9 13 mph 1022mb 67f 66f
10:00am 1.6ft 3s 13 16 mph 1022mb 67f 65f
9:00am 1.3ft 3s 13 16 mph 1021.7mb 67f 64f
8:00am 1.3ft 3s 11 16 mph 1021.9mb 67f 62f
7:00am 1.3ft 3s 13 16 mph 1022mb 67f 62f
6:00am 1ft 3s 11 13 mph 1022.1mb 67f 62f
5:00am 1ft 3s 9
mph
1021.5mb 67f 61f
4:00am 1ft 2s 9 11 mph 1021.1mb 67f 61f
3:00am 1ft 2s 9 11 mph 1020.8mb 67f 61f
2:00am 1ft 2s 9 11 mph 1020.5mb 67f 61f
1:00am 1ft 2s 9 13 mph 1020.8mb 67f 62f
12:00am 1ft 2s 9 11 mph 1021.2mb 67f 62f
Thu 08/27 11:00pm 1ft 3s 9 13 mph 1021.4mb 67f 62f